Andover, Illinois
Current Conditions -  °F | °C
As of 1:52 PM on Friday 28 Nov 2014 (Local Time) from KMLI Reporting Station
Clear Clear  
Wind Chill: 27°   Ceiling: Unl
Heat Index: 34°   Visibility: 9mi
Dew Point: 25°   Wind: 9mph
Humidity: 70%   Direction: 160°SSE
Pressure: 29.92"   Gusts: NA
Location:  41.29°N, 90.29°W
Report Text: KMLI 281952Z 16008KT 9SM CLR 01/M04 A2992 RMK AO2 SLP139 T00111039
Loading
Personal Weather Stations






























Interactive Weather Map New forecast layout! Learn more

10-Day Weather Forecast

Advertisements
Track Severe Weather on mobile